DLH845 ENOL-ENZV
Flight info
| Callsign | DLH845 |
|---|---|
| Flight time | 0h 53m |
| Altitude | 30000 |
| Route | UVEPI EKTAR NEPMO RW18 |
| Aircraft | A346/H-L/L |
Departure
| Time | 2026-04-23 10:11 |
|---|---|
| Airport | Ørland Airport (ENOL) |
Arrival
| Time | 2026-04-23 11:04 |
|---|---|
| Airport | Stavanger Airport, Sola (ENZV) |
| Time | Latitude | Longitude | Altitude | Speed | Heading |
|---|---|---|---|---|---|
| 2026-04-23 10:05 | 63.68895 | 9.61296 | 45 ft | 0 kts | 160° |
| 2026-04-23 10:09 | 63.68891 | 9.61299 | 45 ft | 2 kts | 160° |
| 2026-04-23 10:10 | 63.68866 | 9.61388 | 45 ft | 11 kts | 94° |
| 2026-04-23 10:10 | 63.68902 | 9.61446 | 45 ft | 23 kts | 340° |
| 2026-04-23 10:10 | 63.69326 | 9.60994 | 46 ft | 112 kts | 334° |
| 2026-04-23 10:10 | 63.70254 | 9.60014 | 178 ft | 170 kts | 334° |
| 2026-04-23 10:11 | 63.71324 | 9.58958 | 1325 ft | 166 kts | 323° |
| 2026-04-23 10:11 | 63.72123 | 9.57326 | 2532 ft | 146 kts | 289° |
| 2026-04-23 10:11 | 63.72117 | 9.55234 | 3772 ft | 140 kts | 246° |
| 2026-04-23 10:11 | 63.71330 | 9.53610 | 4523 ft | 173 kts | 216° |
| 2026-04-23 10:12 | 63.70097 | 9.52722 | 5326 ft | 195 kts | 204° |
| 2026-04-23 10:12 | 63.68727 | 9.52009 | 6214 ft | 207 kts | 201° |
| 2026-04-23 10:12 | 63.67271 | 9.51378 | 7091 ft | 218 kts | 199° |
| 2026-04-23 10:12 | 63.65741 | 9.50841 | 7995 ft | 226 kts | 197° |
| 2026-04-23 10:13 | 63.64145 | 9.50413 | 8959 ft | 232 kts | 194° |
| 2026-04-23 10:13 | 63.62544 | 9.49952 | 9815 ft | 238 kts | 204° |
| 2026-04-23 10:13 | 63.60939 | 9.48587 | 10364 ft | 256 kts | 213° |
| 2026-04-23 10:13 | 63.59261 | 9.46767 | 10862 ft | 280 kts | 215° |
| 2026-04-23 10:14 | 63.57449 | 9.44693 | 11396 ft | 302 kts | 216° |
| 2026-04-23 10:14 | 63.55535 | 9.42468 | 11936 ft | 317 kts | 216° |
| 2026-04-23 10:14 | 63.53530 | 9.40121 | 12486 ft | 332 kts | 216° |
| 2026-04-23 10:14 | 63.51431 | 9.37648 | 13034 ft | 348 kts | 216° |
| 2026-04-23 10:15 | 63.49243 | 9.35053 | 13615 ft | 364 kts | 215° |
| 2026-04-23 10:15 | 63.46959 | 9.32328 | 14153 ft | 378 kts | 216° |
| 2026-04-23 10:15 | 63.44619 | 9.29526 | 14646 ft | 384 kts | 215° |
| 2026-04-23 10:15 | 63.42257 | 9.26642 | 15123 ft | 389 kts | 215° |
| 2026-04-23 10:16 | 63.39878 | 9.23685 | 15638 ft | 393 kts | 215° |
| 2026-04-23 10:16 | 63.37526 | 9.20563 | 16147 ft | 394 kts | 220° |
| 2026-04-23 10:16 | 63.35294 | 9.16989 | 16668 ft | 396 kts | 223° |
| 2026-04-23 10:16 | 63.33072 | 9.13236 | 17196 ft | 397 kts | 223° |
| 2026-04-23 10:17 | 63.30858 | 9.09438 | 17761 ft | 401 kts | 223° |
| 2026-04-23 10:17 | 63.28642 | 9.05616 | 18318 ft | 405 kts | 223° |
| 2026-04-23 10:17 | 63.26407 | 9.01744 | 18843 ft | 409 kts | 223° |
| 2026-04-23 10:17 | 63.24132 | 8.97792 | 19339 ft | 412 kts | 223° |
| 2026-04-23 10:18 | 63.21851 | 8.93824 | 19850 ft | 416 kts | 223° |
| 2026-04-23 10:18 | 63.19495 | 8.90028 | 20359 ft | 421 kts | 219° |
| 2026-04-23 10:18 | 63.17031 | 8.86446 | 20882 ft | 426 kts | 218° |
| 2026-04-23 10:18 | 63.14532 | 8.82882 | 21388 ft | 428 kts | 217° |
| 2026-04-23 10:19 | 63.12020 | 8.79297 | 21929 ft | 431 kts | 217° |
| 2026-04-23 10:19 | 63.09488 | 8.75667 | 22493 ft | 435 kts | 217° |
| 2026-04-23 10:19 | 63.06938 | 8.72000 | 23048 ft | 439 kts | 217° |
| 2026-04-23 10:19 | 63.04368 | 8.68291 | 23627 ft | 443 kts | 217° |
| 2026-04-23 10:20 | 63.01776 | 8.64539 | 24141 ft | 448 kts | 217° |
| 2026-04-23 10:20 | 62.99168 | 8.60768 | 24639 ft | 450 kts | 217° |
| 2026-04-23 10:20 | 62.96547 | 8.56983 | 25131 ft | 452 kts | 217° |
| 2026-04-23 10:20 | 62.93941 | 8.53222 | 25632 ft | 455 kts | 217° |
| 2026-04-23 10:21 | 62.91291 | 8.49403 | 26145 ft | 457 kts | 217° |
| 2026-04-23 10:21 | 62.88624 | 8.45565 | 26671 ft | 459 kts | 217° |
| 2026-04-23 10:21 | 62.85949 | 8.41705 | 27194 ft | 461 kts | 217° |
| 2026-04-23 10:21 | 62.83275 | 8.37808 | 27741 ft | 462 kts | 217° |
| 2026-04-23 10:22 | 62.80589 | 8.33884 | 28298 ft | 465 kts | 217° |
| 2026-04-23 10:22 | 62.77893 | 8.29955 | 28865 ft | 467 kts | 217° |
| 2026-04-23 10:22 | 62.75190 | 8.26024 | 29451 ft | 468 kts | 217° |
| 2026-04-23 10:22 | 62.72468 | 8.22076 | 30033 ft | 470 kts | 217° |
| 2026-04-23 10:23 | 62.69725 | 8.18109 | 30338 ft | 475 kts | 217° |
| 2026-04-23 10:23 | 62.66968 | 8.14131 | 30332 ft | 474 kts | 216° |
| 2026-04-23 10:23 | 62.61363 | 8.06451 | 30354 ft | 473 kts | 215° |
| 2026-04-23 10:24 | 62.55768 | 7.98912 | 30348 ft | 472 kts | 215° |
| 2026-04-23 10:24 | 62.50183 | 7.91399 | 30380 ft | 472 kts | 215° |
| 2026-04-23 10:25 | 62.44616 | 7.83947 | 30371 ft | 473 kts | 214° |
| 2026-04-23 10:25 | 62.38924 | 7.76792 | 30381 ft | 473 kts | 213° |
| 2026-04-23 10:26 | 62.33208 | 7.69743 | 30381 ft | 473 kts | 213° |
| 2026-04-23 10:26 | 62.27489 | 7.62725 | 30386 ft | 473 kts | 213° |
| 2026-04-23 10:27 | 62.21753 | 7.55718 | 30402 ft | 472 kts | 212° |
| 2026-04-23 10:27 | 62.16038 | 7.48760 | 30413 ft | 473 kts | 212° |
| 2026-04-23 10:28 | 62.10314 | 7.41813 | 30410 ft | 472 kts | 212° |
| 2026-04-23 10:28 | 62.04567 | 7.34865 | 30431 ft | 472 kts | 212° |
| 2026-04-23 10:29 | 61.98890 | 7.28033 | 30442 ft | 470 kts | 212° |
| 2026-04-23 10:29 | 61.93153 | 7.21158 | 30477 ft | 469 kts | 212° |
| 2026-04-23 10:30 | 61.87446 | 7.14336 | 30485 ft | 468 kts | 212° |
| 2026-04-23 10:30 | 61.81858 | 7.07611 | 30412 ft | 463 kts | 212° |
| 2026-04-23 10:31 | 61.76259 | 7.00880 | 30413 ft | 462 kts | 212° |
| 2026-04-23 10:31 | 61.70667 | 6.94168 | 30394 ft | 462 kts | 212° |
| 2026-04-23 10:32 | 61.65064 | 6.87458 | 30400 ft | 462 kts | 212° |
| 2026-04-23 10:32 | 61.59471 | 6.80782 | 30404 ft | 462 kts | 212° |
| 2026-04-23 10:33 | 61.53875 | 6.74121 | 30405 ft | 462 kts | 212° |
| 2026-04-23 10:33 | 61.48319 | 6.67530 | 30393 ft | 462 kts | 212° |
| 2026-04-23 10:34 | 61.42683 | 6.60863 | 30398 ft | 462 kts | 212° |
| 2026-04-23 10:34 | 61.37121 | 6.54305 | 30387 ft | 462 kts | 212° |
| 2026-04-23 10:35 | 61.31509 | 6.47701 | 30381 ft | 462 kts | 212° |
| 2026-04-23 10:35 | 61.25882 | 6.41101 | 30406 ft | 462 kts | 212° |
| 2026-04-23 10:36 | 61.20271 | 6.34546 | 30404 ft | 462 kts | 212° |
| 2026-04-23 10:36 | 61.14673 | 6.28012 | 30390 ft | 461 kts | 212° |
| 2026-04-23 10:37 | 61.09067 | 6.21465 | 30395 ft | 461 kts | 212° |
| 2026-04-23 10:37 | 61.06269 | 6.18205 | 30100 ft | 460 kts | 212° |
| 2026-04-23 10:37 | 61.03523 | 6.15008 | 29704 ft | 456 kts | 212° |
| 2026-04-23 10:38 | 61.00765 | 6.11801 | 29319 ft | 454 kts | 212° |
| 2026-04-23 10:38 | 60.98008 | 6.08595 | 28936 ft | 452 kts | 212° |
| 2026-04-23 10:38 | 60.95274 | 6.05417 | 28566 ft | 450 kts | 212° |
| 2026-04-23 10:38 | 60.92535 | 6.02235 | 28193 ft | 448 kts | 212° |
| 2026-04-23 10:39 | 60.89833 | 5.99096 | 27819 ft | 446 kts | 212° |
| 2026-04-23 10:39 | 60.87115 | 5.96026 | 27443 ft | 445 kts | 207° |
| 2026-04-23 10:39 | 60.84194 | 5.93914 | 27076 ft | 446 kts | 197° |
| 2026-04-23 10:39 | 60.81160 | 5.92439 | 26733 ft | 445 kts | 194° |
| 2026-04-23 10:40 | 60.78132 | 5.91116 | 26371 ft | 443 kts | 194° |
| 2026-04-23 10:40 | 60.75121 | 5.89829 | 26023 ft | 442 kts | 194° |
| 2026-04-23 10:40 | 60.72109 | 5.88547 | 25678 ft | 440 kts | 194° |
| 2026-04-23 10:40 | 60.69114 | 5.87275 | 25342 ft | 439 kts | 194° |
| 2026-04-23 10:41 | 60.66118 | 5.86011 | 25007 ft | 437 kts | 192° |
| 2026-04-23 10:41 | 60.63087 | 5.85383 | 24667 ft | 437 kts | 184° |
| 2026-04-23 10:41 | 60.60055 | 5.85146 | 24318 ft | 436 kts | 184° |
| 2026-04-23 10:41 | 60.57028 | 5.84946 | 23976 ft | 435 kts | 184° |
| 2026-04-23 10:42 | 60.54007 | 5.84755 | 23564 ft | 433 kts | 183° |
| 2026-04-23 10:42 | 60.51024 | 5.84565 | 23158 ft | 431 kts | 183° |
| 2026-04-23 10:42 | 60.48021 | 5.84364 | 22762 ft | 427 kts | 184° |
| 2026-04-23 10:42 | 60.45041 | 5.84167 | 22360 ft | 425 kts | 184° |
| 2026-04-23 10:43 | 60.42096 | 5.83982 | 21964 ft | 420 kts | 184° |
| 2026-04-23 10:43 | 60.39192 | 5.83823 | 21569 ft | 415 kts | 184° |
| 2026-04-23 10:43 | 60.36327 | 5.83657 | 21204 ft | 409 kts | 184° |
| 2026-04-23 10:43 | 60.33501 | 5.83486 | 20828 ft | 404 kts | 184° |
| 2026-04-23 10:44 | 60.30707 | 5.83303 | 20454 ft | 398 kts | 184° |
| 2026-04-23 10:44 | 60.27956 | 5.83109 | 20087 ft | 393 kts | 184° |
| 2026-04-23 10:44 | 60.26155 | 5.82985 | 19855 ft | 390 kts | 184° |
| 2026-04-23 10:44 | 60.23450 | 5.82801 | 19491 ft | 386 kts | 184° |
| 2026-04-23 10:45 | 60.20785 | 5.82534 | 19136 ft | 381 kts | 185° |
| 2026-04-23 10:45 | 60.18135 | 5.82191 | 18780 ft | 377 kts | 186° |
| 2026-04-23 10:45 | 60.15534 | 5.81842 | 18403 ft | 373 kts | 186° |
| 2026-04-23 10:45 | 60.12932 | 5.81494 | 18000 ft | 370 kts | 186° |
| 2026-04-23 10:46 | 60.10375 | 5.81161 | 17597 ft | 367 kts | 186° |
| 2026-04-23 10:46 | 60.07838 | 5.80838 | 17205 ft | 363 kts | 186° |
| 2026-04-23 10:46 | 60.05347 | 5.80428 | 16820 ft | 357 kts | 187° |
| 2026-04-23 10:46 | 60.02888 | 5.79976 | 16435 ft | 352 kts | 187° |
| 2026-04-23 10:47 | 60.00470 | 5.79525 | 16059 ft | 348 kts | 188° |
| 2026-04-23 10:47 | 59.98075 | 5.79075 | 15688 ft | 343 kts | 190° |
| 2026-04-23 10:47 | 59.95754 | 5.78191 | 15315 ft | 338 kts | 195° |
| 2026-04-23 10:47 | 59.93468 | 5.77222 | 14957 ft | 334 kts | 194° |
| 2026-04-23 10:48 | 59.91179 | 5.76431 | 14596 ft | 332 kts | 192° |
| 2026-04-23 10:48 | 59.88904 | 5.75817 | 14246 ft | 329 kts | 190° |
| 2026-04-23 10:48 | 59.86676 | 5.75331 | 13973 ft | 323 kts | 189° |
| 2026-04-23 10:48 | 59.84433 | 5.74911 | 13660 ft | 317 kts | 188° |
| 2026-04-23 10:49 | 59.82273 | 5.74547 | 13335 ft | 313 kts | 188° |
| 2026-04-23 10:49 | 59.80123 | 5.74210 | 13072 ft | 307 kts | 188° |
| 2026-04-23 10:49 | 59.78015 | 5.73893 | 12803 ft | 301 kts | 188° |
| 2026-04-23 10:49 | 59.75943 | 5.73589 | 12537 ft | 296 kts | 187° |
| 2026-04-23 10:50 | 59.73911 | 5.73292 | 12282 ft | 290 kts | 187° |
| 2026-04-23 10:50 | 59.71910 | 5.73005 | 12025 ft | 286 kts | 187° |
| 2026-04-23 10:50 | 59.69944 | 5.72725 | 11771 ft | 281 kts | 187° |
| 2026-04-23 10:50 | 59.68006 | 5.72449 | 11519 ft | 277 kts | 187° |
| 2026-04-23 10:51 | 59.66099 | 5.72179 | 11293 ft | 271 kts | 188° |
| 2026-04-23 10:51 | 59.64244 | 5.71918 | 11040 ft | 263 kts | 188° |
| 2026-04-23 10:51 | 59.62424 | 5.71661 | 10708 ft | 261 kts | 188° |
| 2026-04-23 10:51 | 59.60617 | 5.71403 | 10349 ft | 260 kts | 188° |
| 2026-04-23 10:52 | 59.58812 | 5.71146 | 9966 ft | 261 kts | 188° |
| 2026-04-23 10:52 | 59.56996 | 5.70887 | 9567 ft | 261 kts | 188° |
| 2026-04-23 10:52 | 59.55188 | 5.70629 | 9200 ft | 259 kts | 188° |
| 2026-04-23 10:52 | 59.53386 | 5.70375 | 8829 ft | 258 kts | 188° |
| 2026-04-23 10:53 | 59.51630 | 5.70128 | 8501 ft | 255 kts | 188° |
| 2026-04-23 10:53 | 59.49866 | 5.69882 | 8165 ft | 253 kts | 188° |
| 2026-04-23 10:53 | 59.48107 | 5.69634 | 7870 ft | 253 kts | 187° |
| 2026-04-23 10:53 | 59.46346 | 5.69382 | 7522 ft | 252 kts | 187° |
| 2026-04-23 10:54 | 59.44608 | 5.69138 | 7192 ft | 249 kts | 187° |
| 2026-04-23 10:54 | 59.42880 | 5.68898 | 6876 ft | 247 kts | 187° |
| 2026-04-23 10:54 | 59.41178 | 5.68663 | 6535 ft | 244 kts | 187° |
| 2026-04-23 10:54 | 59.39483 | 5.68419 | 6208 ft | 244 kts | 186° |
| 2026-04-23 10:55 | 59.37798 | 5.68190 | 5849 ft | 241 kts | 186° |
| 2026-04-23 10:55 | 59.36120 | 5.67960 | 5544 ft | 241 kts | 186° |
| 2026-04-23 10:55 | 59.34438 | 5.67725 | 5198 ft | 240 kts | 186° |
| 2026-04-23 10:55 | 59.32779 | 5.67494 | 4915 ft | 237 kts | 186° |
| 2026-04-23 10:56 | 59.31151 | 5.67268 | 4634 ft | 232 kts | 186° |
| 2026-04-23 10:56 | 59.29566 | 5.67052 | 4374 ft | 224 kts | 186° |
| 2026-04-23 10:56 | 59.28043 | 5.66845 | 4092 ft | 215 kts | 186° |
| 2026-04-23 10:56 | 59.26581 | 5.66645 | 3823 ft | 206 kts | 186° |
| 2026-04-23 10:57 | 59.25194 | 5.66457 | 3560 ft | 199 kts | 186° |
| 2026-04-23 10:57 | 59.23801 | 5.66260 | 3317 ft | 207 kts | 186° |
| 2026-04-23 10:57 | 59.22309 | 5.66042 | 3117 ft | 217 kts | 186° |
| 2026-04-23 10:57 | 59.20818 | 5.65834 | 2926 ft | 213 kts | 185° |
| 2026-04-23 10:58 | 59.19353 | 5.65635 | 2742 ft | 209 kts | 185° |
| 2026-04-23 10:58 | 59.17923 | 5.65442 | 2540 ft | 200 kts | 186° |
| 2026-04-23 10:58 | 59.16568 | 5.65259 | 2336 ft | 189 kts | 185° |
| 2026-04-23 10:58 | 59.15201 | 5.65063 | 2207 ft | 202 kts | 186° |
| 2026-04-23 10:59 | 59.13817 | 5.64515 | 2083 ft | 204 kts | 198° |
| 2026-04-23 10:59 | 59.12447 | 5.63724 | 1955 ft | 207 kts | 196° |
| 2026-04-23 10:59 | 59.11019 | 5.63241 | 1829 ft | 210 kts | 187° |
| 2026-04-23 10:59 | 59.09540 | 5.63099 | 1701 ft | 214 kts | 181° |
| 2026-04-23 11:00 | 59.08056 | 5.63127 | 1598 ft | 212 kts | 179° |
| 2026-04-23 11:00 | 59.06590 | 5.63196 | 1540 ft | 209 kts | 179° |
| 2026-04-23 11:00 | 59.05140 | 5.63263 | 1506 ft | 208 kts | 180° |
| 2026-04-23 11:00 | 59.03692 | 5.63315 | 1440 ft | 208 kts | 180° |
| 2026-04-23 11:01 | 59.02242 | 5.63358 | 1373 ft | 210 kts | 180° |
| 2026-04-23 11:01 | 59.00768 | 5.63401 | 1228 ft | 213 kts | 181° |
| 2026-04-23 11:01 | 58.99317 | 5.63436 | 1075 ft | 206 kts | 180° |
| 2026-04-23 11:01 | 58.97887 | 5.63476 | 967 ft | 206 kts | 181° |
| 2026-04-23 11:02 | 58.96458 | 5.63522 | 802 ft | 199 kts | 180° |
| 2026-04-23 11:02 | 58.95123 | 5.63561 | 675 ft | 191 kts | 180° |
| 2026-04-23 11:02 | 58.93802 | 5.63603 | 537 ft | 188 kts | 181° |
| 2026-04-23 11:02 | 58.92514 | 5.63639 | 505 ft | 180 kts | 181° |
| 2026-04-23 11:03 | 58.91301 | 5.63695 | 364 ft | 172 kts | 182° |
| 2026-04-23 11:03 | 58.90123 | 5.63755 | 203 ft | 166 kts | 183° |
| 2026-04-23 11:03 | 58.88986 | 5.63753 | 61 ft | 158 kts | 185° |
| 2026-04-23 11:03 | 58.88031 | 5.63747 | 44 ft | 111 kts | 178° |
| 2026-04-23 11:04 | 58.87438 | 5.63769 | 47 ft | 59 kts | 179° |
| 2026-04-23 11:04 | 58.87175 | 5.63795 | 52 ft | 27 kts | 175° |
| 2026-04-23 11:04 | 58.87024 | 5.63611 | 51 ft | 29 kts | 239° |
| 2026-04-23 11:04 | 58.87028 | 5.63351 | 50 ft | 20 kts | 329° |
| 2026-04-23 11:05 | 58.87170 | 5.63306 | 50 ft | 23 kts | 1° |
| 2026-04-23 11:05 | 58.87351 | 5.63303 | 50 ft | 28 kts | 358° |
| 2026-04-23 11:05 | 58.87565 | 5.63293 | 48 ft | 33 kts | 359° |
| 2026-04-23 11:05 | 58.87804 | 5.63284 | 47 ft | 35 kts | 358° |
| 2026-04-23 11:06 | 58.88002 | 5.62776 | 44 ft | 13 kts | 315° |
| 2026-04-23 11:06 | 58.88047 | 5.62751 | 44 ft | 2 kts | 5° |
| 2026-04-23 11:06 | 58.88053 | 5.62752 | 44 ft | 0 kts | 7° |